sensor_id;sensor_type;location;lat;lon;timestamp;P1;durP1;ratioP1;P2;durP2;ratioP2
36291;SDS011;22327;51.208;6.418;2023-03-01T00:01:21;9.57;;;7.05;;
36291;SDS011;22327;51.208;6.418;2023-03-01T00:03:49;12.68;;;7.35;;
36291;SDS011;22327;51.208;6.418;2023-03-01T00:06:15;11.88;;;7.45;;
36291;SDS011;22327;51.208;6.418;2023-03-01T00:08:41;11.70;;;6.97;;
36291;SDS011;22327;51.208;6.418;2023-03-01T00:13:35;13.25;;;7.60;;
36291;SDS011;22327;51.208;6.418;2023-03-01T00:16:04;12.35;;;6.97;;
36291;SDS011;22327;51.208;6.418;2023-03-01T00:18:32;9.85;;;6.80;;
36291;SDS011;22327;51.208;6.418;2023-03-01T00:20:58;12.35;;;7.40;;
36291;SDS011;22327;51.208;6.418;2023-03-01T00:23:24;10.40;;;7.95;;
36291;SDS011;22327;51.208;6.418;2023-03-01T00:25:50;12.50;;;7.65;;
36291;SDS011;22327;51.208;6.418;2023-03-01T00:28:16;10.82;;;7.32;;
36291;SDS011;22327;51.208;6.418;2023-03-01T00:30:42;14.07;;;7.82;;
36291;SDS011;22327;51.208;6.418;2023-03-01T00:33:07;12.02;;;7.78;;
36291;SDS011;22327;51.208;6.418;2023-03-01T00:35:33;12.23;;;7.88;;
36291;SDS011;22327;51.208;6.418;2023-03-01T00:37:59;12.02;;;8.00;;
36291;SDS011;22327;51.208;6.418;2023-03-01T00:40:25;12.40;;;8.20;;
36291;SDS011;22327;51.208;6.418;2023-03-01T00:42:52;11.65;;;7.90;;
36291;SDS011;22327;51.208;6.418;2023-03-01T00:45:18;11.32;;;8.23;;
36291;SDS011;22327;51.208;6.418;2023-03-01T00:47:43;11.75;;;7.55;;
36291;SDS011;22327;51.208;6.418;2023-03-01T00:50:09;13.40;;;8.05;;
36291;SDS011;22327;51.208;6.418;2023-03-01T00:52:36;12.60;;;8.43;;
36291;SDS011;22327;51.208;6.418;2023-03-01T00:55:02;11.43;;;7.90;;
36291;SDS011;22327;51.208;6.418;2023-03-01T00:57:29;11.20;;;8.82;;
36291;SDS011;22327;51.208;6.418;2023-03-01T00:59:54;12.30;;;8.85;;
36291;SDS011;22327;51.208;6.418;2023-03-01T01:02:20;10.13;;;7.65;;
36291;SDS011;22327;51.208;6.418;2023-03-01T01:04:46;14.38;;;9.00;;
36291;SDS011;22327;51.208;6.418;2023-03-01T01:07:12;11.65;;;7.82;;
36291;SDS011;22327;51.208;6.418;2023-03-01T01:09:38;12.25;;;8.65;;
36291;SDS011;22327;51.208;6.418;2023-03-01T01:12:03;13.98;;;8.75;;
36291;SDS011;22327;51.208;6.418;2023-03-01T01:14:29;12.30;;;8.48;;
36291;SDS011;22327;51.208;6.418;2023-03-01T01:16:55;13.70;;;9.20;;
36291;SDS011;22327;51.208;6.418;2023-03-01T01:19:21;14.10;;;8.73;;
36291;SDS011;22327;51.208;6.418;2023-03-01T01:21:47;14.20;;;8.73;;
36291;SDS011;22327;51.208;6.418;2023-03-01T01:24:13;14.25;;;9.02;;
36291;SDS011;22327;51.208;6.418;2023-03-01T01:26:39;12.45;;;8.45;;
36291;SDS011;22327;51.208;6.418;2023-03-01T01:29:05;13.27;;;9.20;;
36291;SDS011;22327;51.208;6.418;2023-03-01T01:31:31;11.35;;;8.40;;
36291;SDS011;22327;51.208;6.418;2023-03-01T01:34:00;14.10;;;9.30;;
36291;SDS011;22327;51.208;6.418;2023-03-01T01:36:28;12.80;;;8.48;;
36291;SDS011;22327;51.208;6.418;2023-03-01T01:38:54;15.57;;;9.45;;
36291;SDS011;22327;51.208;6.418;2023-03-01T01:41:20;14.18;;;9.85;;
36291;SDS011;22327;51.208;6.418;2023-03-01T01:43:47;12.68;;;8.82;;
36291;SDS011;22327;51.208;6.418;2023-03-01T01:46:16;15.00;;;9.57;;
36291;SDS011;22327;51.208;6.418;2023-03-01T01:48:45;13.60;;;9.73;;
36291;SDS011;22327;51.208;6.418;2023-03-01T01:51:16;14.43;;;9.15;;
36291;SDS011;22327;51.208;6.418;2023-03-01T01:53:46;14.90;;;8.80;;
36291;SDS011;22327;51.208;6.418;2023-03-01T01:56:15;12.63;;;9.10;;
36291;SDS011;22327;51.208;6.418;2023-03-01T01:58:43;12.45;;;9.10;;
36291;SDS011;22327;51.208;6.418;2023-03-01T02:01:10;11.57;;;9.30;;
36291;SDS011;22327;51.208;6.418;2023-03-01T02:03:37;13.98;;;9.60;;
36291;SDS011;22327;51.208;6.418;2023-03-01T02:06:11;16.13;;;9.82;;
36291;SDS011;22327;51.208;6.418;2023-03-01T02:08:54;13.73;;;9.18;;
36291;SDS011;22327;51.208;6.418;2023-03-01T02:11:23;13.30;;;8.38;;
36291;SDS011;22327;51.208;6.418;2023-03-01T02:13:50;11.93;;;9.45;;
36291;SDS011;22327;51.208;6.418;2023-03-01T02:16:18;14.10;;;8.85;;
36291;SDS011;22327;51.208;6.418;2023-03-01T02:18:44;13.40;;;9.38;;
36291;SDS011;22327;51.208;6.418;2023-03-01T02:24:13;12.32;;;9.10;;
36291;SDS011;22327;51.208;6.418;2023-03-01T02:26:59;13.13;;;9.68;;
36291;SDS011;22327;51.208;6.418;2023-03-01T02:29:25;11.27;;;8.40;;
36291;SDS011;22327;51.208;6.418;2023-03-01T02:31:53;13.20;;;8.75;;
36291;SDS011;22327;51.208;6.418;2023-03-01T02:34:22;16.05;;;9.27;;
36291;SDS011;22327;51.208;6.418;2023-03-01T02:39:31;17.77;;;12.80;;
36291;SDS011;22327;51.208;6.418;2023-03-01T02:42:01;13.95;;;9.40;;
36291;SDS011;22327;51.208;6.418;2023-03-01T02:44:28;13.40;;;9.73;;
36291;SDS011;22327;51.208;6.418;2023-03-01T02:46:55;13.23;;;8.77;;
36291;SDS011;22327;51.208;6.418;2023-03-01T02:49:25;15.57;;;9.32;;
36291;SDS011;22327;51.208;6.418;2023-03-01T02:52:36;12.77;;;9.00;;
36291;SDS011;22327;51.208;6.418;2023-03-01T02:54:51;13.88;;;8.85;;
36291;SDS011;22327;51.208;6.418;2023-03-01T02:57:27;13.80;;;9.07;;
36291;SDS011;22327;51.208;6.418;2023-03-01T02:59:55;12.77;;;9.63;;
36291;SDS011;22327;51.208;6.418;2023-03-01T03:02:23;13.25;;;9.52;;
36291;SDS011;22327;51.208;6.418;2023-03-01T03:05:05;14.10;;;8.93;;
36291;SDS011;22327;51.208;6.418;2023-03-01T03:07:43;13.93;;;9.68;;
36291;SDS011;22327;51.208;6.418;2023-03-01T03:10:12;17.30;;;10.27;;
36291;SDS011;22327;51.208;6.418;2023-03-01T03:12:44;15.27;;;9.65;;
36291;SDS011;22327;51.208;6.418;2023-03-01T03:15:13;13.43;;;9.55;;
36291;SDS011;22327;51.208;6.418;2023-03-01T03:17:40;14.77;;;9.90;;
36291;SDS011;22327;51.208;6.418;2023-03-01T03:20:09;14.35;;;9.65;;
36291;SDS011;22327;51.208;6.418;2023-03-01T03:22:38;13.90;;;10.05;;
36291;SDS011;22327;51.208;6.418;2023-03-01T03:25:04;13.45;;;10.35;;
36291;SDS011;22327;51.208;6.418;2023-03-01T03:27:35;13.27;;;9.82;;
36291;SDS011;22327;51.208;6.418;2023-03-01T03:30:05;13.57;;;9.77;;
36291;SDS011;22327;51.208;6.418;2023-03-01T03:32:37;17.08;;;10.23;;
36291;SDS011;22327;51.208;6.418;2023-03-01T03:35:04;15.38;;;10.38;;
36291;SDS011;22327;51.208;6.418;2023-03-01T03:37:35;13.93;;;9.90;;
36291;SDS011;22327;51.208;6.418;2023-03-01T03:40:20;15.52;;;10.52;;
36291;SDS011;22327;51.208;6.418;2023-03-01T03:42:46;14.15;;;9.93;;
36291;SDS011;22327;51.208;6.418;2023-03-01T03:45:13;14.90;;;10.15;;
36291;SDS011;22327;51.208;6.418;2023-03-01T03:47:38;16.85;;;9.43;;
36291;SDS011;22327;51.208;6.418;2023-03-01T03:50:04;15.77;;;9.93;;
36291;SDS011;22327;51.208;6.418;2023-03-01T03:52:30;16.95;;;9.98;;
36291;SDS011;22327;51.208;6.418;2023-03-01T03:54:55;15.80;;;10.88;;
36291;SDS011;22327;51.208;6.418;2023-03-01T03:57:21;17.02;;;10.63;;
36291;SDS011;22327;51.208;6.418;2023-03-01T03:59:46;14.75;;;10.02;;
36291;SDS011;22327;51.208;6.418;2023-03-01T04:02:12;16.25;;;10.40;;
36291;SDS011;22327;51.208;6.418;2023-03-01T04:04:37;16.38;;;10.45;;
36291;SDS011;22327;51.208;6.418;2023-03-01T04:07:03;13.88;;;10.02;;
36291;SDS011;22327;51.208;6.418;2023-03-01T04:09:28;17.73;;;10.82;;
36291;SDS011;22327;51.208;6.418;2023-03-01T04:11:55;15.65;;;10.57;;
36291;SDS011;22327;51.208;6.418;2023-03-01T04:14:20;17.02;;;11.18;;
36291;SDS011;22327;51.208;6.418;2023-03-01T04:16:46;16.42;;;10.48;;
36291;SDS011;22327;51.208;6.418;2023-03-01T04:19:12;14.00;;;10.82;;
36291;SDS011;22327;51.208;6.418;2023-03-01T04:21:37;17.48;;;11.45;;
36291;SDS011;22327;51.208;6.418;2023-03-01T04:24:03;16.52;;;10.90;;
36291;SDS011;22327;51.208;6.418;2023-03-01T04:26:29;18.92;;;11.80;;
36291;SDS011;22327;51.208;6.418;2023-03-01T04:28:54;18.27;;;11.38;;
36291;SDS011;22327;51.208;6.418;2023-03-01T04:31:20;20.48;;;11.57;;
36291;SDS011;22327;51.208;6.418;2023-03-01T04:36:13;15.70;;;11.40;;
36291;SDS011;22327;51.208;6.418;2023-03-01T04:38:40;18.95;;;11.88;;
36291;SDS011;22327;51.208;6.418;2023-03-01T04:41:07;16.88;;;11.52;;
36291;SDS011;22327;51.208;6.418;2023-03-01T04:43:34;17.27;;;11.35;;
36291;SDS011;22327;51.208;6.418;2023-03-01T04:46:01;18.33;;;11.82;;
36291;SDS011;22327;51.208;6.418;2023-03-01T04:48:28;18.63;;;11.45;;
36291;SDS011;22327;51.208;6.418;2023-03-01T04:50:54;17.90;;;11.48;;
36291;SDS011;22327;51.208;6.418;2023-03-01T04:53:20;18.42;;;11.68;;
36291;SDS011;22327;51.208;6.418;2023-03-01T04:55:45;16.73;;;11.85;;
36291;SDS011;22327;51.208;6.418;2023-03-01T04:58:11;16.25;;;11.45;;
36291;SDS011;22327;51.208;6.418;2023-03-01T05:00:36;17.02;;;11.57;;
36291;SDS011;22327;51.208;6.418;2023-03-01T05:03:02;15.35;;;10.95;;
36291;SDS011;22327;51.208;6.418;2023-03-01T05:05:29;19.80;;;13.40;;
36291;SDS011;22327;51.208;6.418;2023-03-01T05:08:01;16.83;;;11.55;;
36291;SDS011;22327;51.208;6.418;2023-03-01T05:10:29;15.90;;;12.02;;
36291;SDS011;22327;51.208;6.418;2023-03-01T05:12:57;16.75;;;11.70;;
36291;SDS011;22327;51.208;6.418;2023-03-01T05:15:24;19.58;;;11.57;;
36291;SDS011;22327;51.208;6.418;2023-03-01T05:17:51;16.77;;;11.15;;
36291;SDS011;22327;51.208;6.418;2023-03-01T05:20:19;18.80;;;11.55;;
36291;SDS011;22327;51.208;6.418;2023-03-01T05:22:47;17.63;;;11.57;;
36291;SDS011;22327;51.208;6.418;2023-03-01T05:25:13;15.93;;;12.02;;
36291;SDS011;22327;51.208;6.418;2023-03-01T05:27:39;19.25;;;11.90;;
36291;SDS011;22327;51.208;6.418;2023-03-01T05:30:05;19.45;;;11.23;;
36291;SDS011;22327;51.208;6.418;2023-03-01T05:32:39;18.40;;;11.63;;
36291;SDS011;22327;51.208;6.418;2023-03-01T05:35:05;19.10;;;12.90;;
36291;SDS011;22327;51.208;6.418;2023-03-01T05:37:31;19.10;;;12.35;;
36291;SDS011;22327;51.208;6.418;2023-03-01T05:39:57;16.83;;;11.35;;
36291;SDS011;22327;51.208;6.418;2023-03-01T05:42:23;16.70;;;10.88;;
36291;SDS011;22327;51.208;6.418;2023-03-01T05:44:48;16.95;;;11.30;;
36291;SDS011;22327;51.208;6.418;2023-03-01T05:47:14;19.42;;;12.27;;
36291;SDS011;22327;51.208;6.418;2023-03-01T05:49:39;15.38;;;11.25;;
36291;SDS011;22327;51.208;6.418;2023-03-01T05:52:05;17.92;;;11.82;;
36291;SDS011;22327;51.208;6.418;2023-03-01T05:54:30;21.17;;;12.20;;
36291;SDS011;22327;51.208;6.418;2023-03-01T05:56:56;16.13;;;11.55;;
36291;SDS011;22327;51.208;6.418;2023-03-01T05:59:21;19.83;;;12.90;;
36291;SDS011;22327;51.208;6.418;2023-03-01T06:01:47;16.67;;;12.23;;
36291;SDS011;22327;51.208;6.418;2023-03-01T06:04:12;20.25;;;12.65;;
36291;SDS011;22327;51.208;6.418;2023-03-01T06:06:38;23.10;;;13.43;;
36291;SDS011;22327;51.208;6.418;2023-03-01T06:09:06;17.90;;;12.85;;
36291;SDS011;22327;51.208;6.418;2023-03-01T06:11:34;22.77;;;13.88;;
36291;SDS011;22327;51.208;6.418;2023-03-01T06:14:00;20.73;;;12.70;;
36291;SDS011;22327;51.208;6.418;2023-03-01T06:16:26;21.15;;;13.65;;
36291;SDS011;22327;51.208;6.418;2023-03-01T06:18:51;20.23;;;12.27;;
36291;SDS011;22327;51.208;6.418;2023-03-01T06:21:17;21.42;;;12.65;;
36291;SDS011;22327;51.208;6.418;2023-03-01T06:23:43;20.55;;;13.00;;
36291;SDS011;22327;51.208;6.418;2023-03-01T06:26:08;20.35;;;12.80;;
36291;SDS011;22327;51.208;6.418;2023-03-01T06:28:34;18.73;;;11.95;;
36291;SDS011;22327;51.208;6.418;2023-03-01T06:31:00;17.45;;;12.18;;
36291;SDS011;22327;51.208;6.418;2023-03-01T06:33:26;17.65;;;11.20;;
36291;SDS011;22327;51.208;6.418;2023-03-01T06:35:54;17.75;;;12.60;;
36291;SDS011;22327;51.208;6.418;2023-03-01T06:38:21;18.35;;;11.80;;
36291;SDS011;22327;51.208;6.418;2023-03-01T06:40:51;14.38;;;11.02;;
36291;SDS011;22327;51.208;6.418;2023-03-01T06:43:18;17.60;;;11.80;;
36291;SDS011;22327;51.208;6.418;2023-03-01T06:45:44;19.38;;;11.00;;
36291;SDS011;22327;51.208;6.418;2023-03-01T06:48:10;14.68;;;10.73;;
36291;SDS011;22327;51.208;6.418;2023-03-01T06:50:36;18.35;;;10.43;;
36291;SDS011;22327;51.208;6.418;2023-03-01T06:53:02;14.38;;;8.95;;
36291;SDS011;22327;51.208;6.418;2023-03-01T06:55:28;15.15;;;10.75;;
36291;SDS011;22327;51.208;6.418;2023-03-01T06:57:55;16.33;;;10.23;;
36291;SDS011;22327;51.208;6.418;2023-03-01T07:00:21;15.57;;;9.38;;
36291;SDS011;22327;51.208;6.418;2023-03-01T07:02:47;16.10;;;11.10;;
36291;SDS011;22327;51.208;6.418;2023-03-01T07:05:13;15.45;;;9.10;;
36291;SDS011;22327;51.208;6.418;2023-03-01T07:07:38;17.92;;;11.40;;
36291;SDS011;22327;51.208;6.418;2023-03-01T07:10:04;13.55;;;9.55;;
36291;SDS011;22327;51.208;6.418;2023-03-01T07:12:30;12.90;;;8.43;;
36291;SDS011;22327;51.208;6.418;2023-03-01T07:14:55;14.57;;;9.05;;
36291;SDS011;22327;51.208;6.418;2023-03-01T07:17:21;11.15;;;8.45;;
36291;SDS011;22327;51.208;6.418;2023-03-01T07:19:46;12.43;;;8.02;;
36291;SDS011;22327;51.208;6.418;2023-03-01T07:22:12;13.35;;;8.05;;
36291;SDS011;22327;51.208;6.418;2023-03-01T07:24:37;11.73;;;8.68;;
36291;SDS011;22327;51.208;6.418;2023-03-01T07:27:03;12.98;;;8.30;;
36291;SDS011;22327;51.208;6.418;2023-03-01T07:29:29;14.95;;;9.95;;
36291;SDS011;22327;51.208;6.418;2023-03-01T07:31:54;11.10;;;8.75;;
36291;SDS011;22327;51.208;6.418;2023-03-01T07:34:20;10.43;;;7.05;;
36291;SDS011;22327;51.208;6.418;2023-03-01T07:36:45;11.68;;;7.88;;
36291;SDS011;22327;51.208;6.418;2023-03-01T07:39:11;8.45;;;6.75;;
36291;SDS011;22327;51.208;6.418;2023-03-01T07:41:37;11.20;;;7.30;;
36291;SDS011;22327;51.208;6.418;2023-03-01T07:44:02;11.32;;;7.53;;
36291;SDS011;22327;51.208;6.418;2023-03-01T07:46:28;8.77;;;7.88;;
36291;SDS011;22327;51.208;6.418;2023-03-01T07:48:54;11.02;;;7.60;;
36291;SDS011;22327;51.208;6.418;2023-03-01T07:51:19;15.00;;;6.60;;
36291;SDS011;22327;51.208;6.418;2023-03-01T07:53:48;11.02;;;7.57;;
36291;SDS011;22327;51.208;6.418;2023-03-01T07:56:14;10.55;;;7.22;;
36291;SDS011;22327;51.208;6.418;2023-03-01T07:58:42;11.00;;;7.55;;
36291;SDS011;22327;51.208;6.418;2023-03-01T08:01:10;11.50;;;7.47;;
36291;SDS011;22327;51.208;6.418;2023-03-01T08:03:38;8.68;;;6.28;;
36291;SDS011;22327;51.208;6.418;2023-03-01T08:06:05;12.10;;;7.97;;
36291;SDS011;22327;51.208;6.418;2023-03-01T08:08:32;10.90;;;7.93;;
36291;SDS011;22327;51.208;6.418;2023-03-01T08:10:59;11.35;;;8.32;;
36291;SDS011;22327;51.208;6.418;2023-03-01T08:13:25;19.02;;;13.32;;
36291;SDS011;22327;51.208;6.418;2023-03-01T08:15:52;11.40;;;8.15;;
36291;SDS011;22327;51.208;6.418;2023-03-01T08:18:18;10.32;;;7.80;;
36291;SDS011;22327;51.208;6.418;2023-03-01T08:20:45;11.18;;;6.60;;
36291;SDS011;22327;51.208;6.418;2023-03-01T08:23:10;12.25;;;8.50;;
36291;SDS011;22327;51.208;6.418;2023-03-01T08:25:37;10.23;;;7.10;;
36291;SDS011;22327;51.208;6.418;2023-03-01T08:28:03;13.60;;;9.20;;
36291;SDS011;22327;51.208;6.418;2023-03-01T08:30:29;13.18;;;7.43;;
36291;SDS011;22327;51.208;6.418;2023-03-01T08:32:54;10.27;;;7.18;;
36291;SDS011;22327;51.208;6.418;2023-03-01T08:35:20;10.73;;;7.25;;
36291;SDS011;22327;51.208;6.418;2023-03-01T08:37:45;10.85;;;8.15;;
36291;SDS011;22327;51.208;6.418;2023-03-01T08:40:11;8.52;;;6.97;;
36291;SDS011;22327;51.208;6.418;2023-03-01T08:42:38;11.70;;;9.00;;
36291;SDS011;22327;51.208;6.418;2023-03-01T08:45:05;11.00;;;7.82;;
36291;SDS011;22327;51.208;6.418;2023-03-01T08:47:32;11.43;;;10.20;;
36291;SDS011;22327;51.208;6.418;2023-03-01T08:49:58;9.32;;;8.18;;
36291;SDS011;22327;51.208;6.418;2023-03-01T08:52:26;10.50;;;7.88;;
36291;SDS011;22327;51.208;6.418;2023-03-01T08:54:52;10.15;;;8.05;;
36291;SDS011;22327;51.208;6.418;2023-03-01T08:57:18;10.23;;;7.57;;
36291;SDS011;22327;51.208;6.418;2023-03-01T08:59:44;10.68;;;7.43;;
36291;SDS011;22327;51.208;6.418;2023-03-01T09:02:14;13.77;;;8.38;;
36291;SDS011;22327;51.208;6.418;2023-03-01T09:04:41;9.40;;;6.78;;
36291;SDS011;22327;51.208;6.418;2023-03-01T09:07:07;11.70;;;7.38;;
36291;SDS011;22327;51.208;6.418;2023-03-01T09:09:33;8.93;;;7.45;;
36291;SDS011;22327;51.208;6.418;2023-03-01T09:11:59;10.52;;;7.03;;
36291;SDS011;22327;51.208;6.418;2023-03-01T09:14:25;8.95;;;7.18;;
36291;SDS011;22327;51.208;6.418;2023-03-01T09:16:50;8.30;;;6.80;;
36291;SDS011;22327;51.208;6.418;2023-03-01T09:19:16;8.15;;;6.65;;
36291;SDS011;22327;51.208;6.418;2023-03-01T09:21:41;10.38;;;7.07;;
36291;SDS011;22327;51.208;6.418;2023-03-01T09:24:16;9.30;;;7.70;;
36291;SDS011;22327;51.208;6.418;2023-03-01T09:26:43;10.93;;;7.10;;
36291;SDS011;22327;51.208;6.418;2023-03-01T09:29:11;8.45;;;6.50;;
36291;SDS011;22327;51.208;6.418;2023-03-01T09:31:37;9.80;;;7.32;;
36291;SDS011;22327;51.208;6.418;2023-03-01T09:34:03;9.25;;;6.70;;
36291;SDS011;22327;51.208;6.418;2023-03-01T09:36:30;10.25;;;7.72;;
36291;SDS011;22327;51.208;6.418;2023-03-01T09:38:56;9.88;;;8.63;;
36291;SDS011;22327;51.208;6.418;2023-03-01T09:41:29;9.77;;;7.45;;
36291;SDS011;22327;51.208;6.418;2023-03-01T09:44:11;8.57;;;6.90;;
36291;SDS011;22327;51.208;6.418;2023-03-01T09:46:59;9.20;;;7.10;;
36291;SDS011;22327;51.208;6.418;2023-03-01T09:49:25;10.13;;;7.25;;
36291;SDS011;22327;51.208;6.418;2023-03-01T09:52:00;9.63;;;7.85;;
36291;SDS011;22327;51.208;6.418;2023-03-01T09:54:37;8.13;;;7.05;;
36291;SDS011;22327;51.208;6.418;2023-03-01T09:57:10;9.48;;;7.03;;
36291;SDS011;22327;51.208;6.418;2023-03-01T09:59:52;11.38;;;10.13;;
36291;SDS011;22327;51.208;6.418;2023-03-01T10:02:37;9.77;;;7.40;;
36291;SDS011;22327;51.208;6.418;2023-03-01T10:10:28;11.45;;;8.40;;
36291;SDS011;22327;51.208;6.418;2023-03-01T10:13:00;10.25;;;7.55;;
36291;SDS011;22327;51.208;6.418;2023-03-01T10:15:40;10.30;;;7.75;;
36291;SDS011;22327;51.208;6.418;2023-03-01T10:18:14;11.55;;;7.20;;
36291;SDS011;22327;51.208;6.418;2023-03-01T10:23:19;8.45;;;6.88;;
36291;SDS011;22327;51.208;6.418;2023-03-01T10:29:01;10.77;;;7.55;;
36291;SDS011;22327;51.208;6.418;2023-03-01T10:31:32;8.80;;;7.80;;
36291;SDS011;22327;51.208;6.418;2023-03-01T10:34:22;9.65;;;7.28;;
36291;SDS011;22327;51.208;6.418;2023-03-01T10:37:12;10.82;;;7.30;;
36291;SDS011;22327;51.208;6.418;2023-03-01T10:45:19;9.40;;;6.82;;
36291;SDS011;22327;51.208;6.418;2023-03-01T10:51:14;10.00;;;7.18;;
36291;SDS011;22327;51.208;6.418;2023-03-01T10:53:42;10.80;;;6.63;;
36291;SDS011;22327;51.208;6.418;2023-03-01T10:56:14;9.80;;;7.72;;
36291;SDS011;22327;51.208;6.418;2023-03-01T10:58:57;10.38;;;6.95;;
36291;SDS011;22327;51.208;6.418;2023-03-01T11:01:25;9.50;;;7.25;;
36291;SDS011;22327;51.208;6.418;2023-03-01T11:06:31;9.65;;;7.03;;
36291;SDS011;22327;51.208;6.418;2023-03-01T11:09:01;9.13;;;5.80;;
36291;SDS011;22327;51.208;6.418;2023-03-01T11:11:40;9.70;;;7.13;;
36291;SDS011;22327;51.208;6.418;2023-03-01T11:14:18;11.40;;;8.23;;
36291;SDS011;22327;51.208;6.418;2023-03-01T11:17:11;10.27;;;7.65;;
36291;SDS011;22327;51.208;6.418;2023-03-01T11:19:39;8.75;;;6.47;;
36291;SDS011;22327;51.208;6.418;2023-03-01T11:22:07;11.45;;;7.30;;
36291;SDS011;22327;51.208;6.418;2023-03-01T11:24:47;9.43;;;7.13;;
36291;SDS011;22327;51.208;6.418;2023-03-01T11:27:17;11.20;;;8.00;;
36291;SDS011;22327;51.208;6.418;2023-03-01T11:29:58;10.00;;;7.20;;
36291;SDS011;22327;51.208;6.418;2023-03-01T11:32:25;10.60;;;8.20;;
36291;SDS011;22327;51.208;6.418;2023-03-01T11:34:57;9.02;;;6.60;;
36291;SDS011;22327;51.208;6.418;2023-03-01T11:37:35;10.77;;;7.88;;
36291;SDS011;22327;51.208;6.418;2023-03-01T11:40:13;9.57;;;7.32;;
36291;SDS011;22327;51.208;6.418;2023-03-01T11:45:17;11.18;;;8.18;;
36291;SDS011;22327;51.208;6.418;2023-03-01T11:56:03;10.18;;;7.20;;
36291;SDS011;22327;51.208;6.418;2023-03-01T11:58:58;8.20;;;5.80;;
36291;SDS011;22327;51.208;6.418;2023-03-01T12:07:01;11.38;;;7.15;;
36291;SDS011;22327;51.208;6.418;2023-03-01T12:12:57;9.20;;;6.68;;
36291;SDS011;22327;51.208;6.418;2023-03-01T12:15:42;9.93;;;7.10;;
36291;SDS011;22327;51.208;6.418;2023-03-01T12:29:22;11.77;;;8.77;;
36291;SDS011;22327;51.208;6.418;2023-03-01T12:48:08;6.25;;;5.10;;
36291;SDS011;22327;51.208;6.418;2023-03-01T12:50:48;7.57;;;5.47;;
36291;SDS011;22327;51.208;6.418;2023-03-01T12:53:24;6.55;;;4.78;;
36291;SDS011;22327;51.208;6.418;2023-03-01T12:55:55;5.95;;;4.35;;
36291;SDS011;22327;51.208;6.418;2023-03-01T13:09:44;6.63;;;5.10;;
36291;SDS011;22327;51.208;6.418;2023-03-01T13:17:47;6.82;;;4.70;;
36291;SDS011;22327;51.208;6.418;2023-03-01T13:21:06;6.70;;;4.03;;
36291;SDS011;22327;51.208;6.418;2023-03-01T13:34:13;5.78;;;3.85;;
36291;SDS011;22327;51.208;6.418;2023-03-01T13:36:51;8.77;;;4.90;;
36291;SDS011;22327;51.208;6.418;2023-03-01T13:39:27;6.65;;;4.75;;
36291;SDS011;22327;51.208;6.418;2023-03-01T13:42:03;6.72;;;3.92;;
36291;SDS011;22327;51.208;6.418;2023-03-01T13:44:48;5.85;;;4.10;;
36291;SDS011;22327;51.208;6.418;2023-03-01T13:47:16;7.90;;;4.18;;
36291;SDS011;22327;51.208;6.418;2023-03-01T13:55:05;6.78;;;4.38;;
36291;SDS011;22327;51.208;6.418;2023-03-01T13:58:00;7.07;;;4.53;;
36291;SDS011;22327;51.208;6.418;2023-03-01T14:03:06;5.18;;;3.63;;
36291;SDS011;22327;51.208;6.418;2023-03-01T14:05:56;6.10;;;3.40;;
36291;SDS011;22327;51.208;6.418;2023-03-01T14:08:40;7.13;;;4.82;;
36291;SDS011;22327;51.208;6.418;2023-03-01T14:11:13;7.10;;;4.57;;
36291;SDS011;22327;51.208;6.418;2023-03-01T14:19:27;5.78;;;3.95;;
36291;SDS011;22327;51.208;6.418;2023-03-01T14:24:29;9.43;;;4.65;;
36291;SDS011;22327;51.208;6.418;2023-03-01T14:26:57;6.35;;;5.20;;
36291;SDS011;22327;51.208;6.418;2023-03-01T14:29:35;6.35;;;4.35;;
36291;SDS011;22327;51.208;6.418;2023-03-01T14:32:19;6.88;;;4.65;;
36291;SDS011;22327;51.208;6.418;2023-03-01T14:34:47;7.43;;;3.97;;
36291;SDS011;22327;51.208;6.418;2023-03-01T14:37:27;5.47;;;4.32;;
36291;SDS011;22327;51.208;6.418;2023-03-01T14:42:24;5.95;;;4.13;;
36291;SDS011;22327;51.208;6.418;2023-03-01T14:44:53;5.78;;;4.10;;
36291;SDS011;22327;51.208;6.418;2023-03-01T14:47:33;5.93;;;3.10;;
36291;SDS011;22327;51.208;6.418;2023-03-01T14:52:59;8.20;;;4.63;;
36291;SDS011;22327;51.208;6.418;2023-03-01T14:58:08;9.52;;;4.55;;
36291;SDS011;22327;51.208;6.418;2023-03-01T15:00:37;6.50;;;3.50;;
36291;SDS011;22327;51.208;6.418;2023-03-01T15:03:07;6.70;;;4.50;;
36291;SDS011;22327;51.208;6.418;2023-03-01T15:05:38;7.95;;;5.10;;
36291;SDS011;22327;51.208;6.418;2023-03-01T15:08:06;5.60;;;4.50;;
36291;SDS011;22327;51.208;6.418;2023-03-01T15:10:33;7.03;;;4.75;;
36291;SDS011;22327;51.208;6.418;2023-03-01T15:13:13;7.22;;;4.50;;
36291;SDS011;22327;51.208;6.418;2023-03-01T15:15:46;5.90;;;4.70;;
36291;SDS011;22327;51.208;6.418;2023-03-01T15:20:39;8.25;;;4.50;;
36291;SDS011;22327;51.208;6.418;2023-03-01T15:23:04;7.47;;;4.38;;
36291;SDS011;22327;51.208;6.418;2023-03-01T15:25:31;7.68;;;3.75;;
36291;SDS011;22327;51.208;6.418;2023-03-01T15:27:58;9.93;;;4.95;;
36291;SDS011;22327;51.208;6.418;2023-03-01T15:30:27;6.75;;;4.90;;
36291;SDS011;22327;51.208;6.418;2023-03-01T15:35:55;6.63;;;4.50;;
36291;SDS011;22327;51.208;6.418;2023-03-01T15:40:56;7.43;;;4.65;;
36291;SDS011;22327;51.208;6.418;2023-03-01T15:46:34;8.10;;;4.90;;
36291;SDS011;22327;51.208;6.418;2023-03-01T15:49:18;6.60;;;4.90;;
36291;SDS011;22327;51.208;6.418;2023-03-01T15:52:04;6.15;;;4.95;;
36291;SDS011;22327;51.208;6.418;2023-03-01T15:54:35;5.97;;;4.55;;
36291;SDS011;22327;51.208;6.418;2023-03-01T15:57:03;7.65;;;4.63;;
36291;SDS011;22327;51.208;6.418;2023-03-01T15:59:28;8.25;;;4.35;;
36291;SDS011;22327;51.208;6.418;2023-03-01T16:01:54;7.72;;;4.40;;
36291;SDS011;22327;51.208;6.418;2023-03-01T16:04:19;7.22;;;4.97;;
36291;SDS011;22327;51.208;6.418;2023-03-01T16:06:48;7.15;;;4.65;;
36291;SDS011;22327;51.208;6.418;2023-03-01T16:09:19;7.60;;;4.78;;
36291;SDS011;22327;51.208;6.418;2023-03-01T16:11:48;10.75;;;5.78;;
36291;SDS011;22327;51.208;6.418;2023-03-01T16:14:15;7.97;;;4.88;;
36291;SDS011;22327;51.208;6.418;2023-03-01T16:16:41;5.45;;;4.03;;
36291;SDS011;22327;51.208;6.418;2023-03-01T16:19:07;6.30;;;4.35;;
36291;SDS011;22327;51.208;6.418;2023-03-01T16:21:33;8.35;;;5.03;;
36291;SDS011;22327;51.208;6.418;2023-03-01T16:23:58;8.68;;;5.57;;
36291;SDS011;22327;51.208;6.418;2023-03-01T16:26:24;5.65;;;4.28;;
36291;SDS011;22327;51.208;6.418;2023-03-01T16:28:49;7.90;;;5.07;;
36291;SDS011;22327;51.208;6.418;2023-03-01T16:31:19;8.07;;;5.05;;
36291;SDS011;22327;51.208;6.418;2023-03-01T16:33:45;6.78;;;3.92;;
36291;SDS011;22327;51.208;6.418;2023-03-01T16:36:18;7.68;;;5.22;;
36291;SDS011;22327;51.208;6.418;2023-03-01T16:38:45;9.68;;;5.10;;
36291;SDS011;22327;51.208;6.418;2023-03-01T16:41:12;7.25;;;5.40;;
36291;SDS011;22327;51.208;6.418;2023-03-01T16:43:40;8.23;;;5.03;;
36291;SDS011;22327;51.208;6.418;2023-03-01T16:46:09;9.32;;;4.90;;
36291;SDS011;22327;51.208;6.418;2023-03-01T16:48:39;7.70;;;5.00;;
36291;SDS011;22327;51.208;6.418;2023-03-01T16:51:05;6.93;;;5.00;;
36291;SDS011;22327;51.208;6.418;2023-03-01T16:53:32;11.55;;;5.20;;
36291;SDS011;22327;51.208;6.418;2023-03-01T16:55:59;8.15;;;4.68;;
36291;SDS011;22327;51.208;6.418;2023-03-01T16:58:24;9.27;;;5.28;;
36291;SDS011;22327;51.208;6.418;2023-03-01T17:00:54;6.35;;;4.07;;
36291;SDS011;22327;51.208;6.418;2023-03-01T17:03:21;9.38;;;4.65;;
36291;SDS011;22327;51.208;6.418;2023-03-01T17:05:47;8.55;;;5.55;;
36291;SDS011;22327;51.208;6.418;2023-03-01T17:08:13;7.18;;;4.70;;
36291;SDS011;22327;51.208;6.418;2023-03-01T17:10:39;8.13;;;6.15;;